Time;durP1;ratioP1;P1;durP2;ratioP2;P2;SDS_P1;SDS_P2;PMS_P1;PMS_P2;Temp;Humidity;BMP_temperature;BMP_pressure;BME280_temperature;BME280_humidity;BME280_pressure;Samples;Min_cycle;Max_cycle;Signal;HPM_P1;HPM_P2
2021/06/11 00:00:08;;;;;;;;;7.25;5.75;;;;;20.48;60.65;100240.56;4991574;28;45539;-89
2021/06/11 00:02:34;;;;;;;;;6.75;4.00;;;;;20.39;61.18;100236.50;4968404;28;45401;-89
2021/06/11 00:04:59;;;;;;;;;6.75;5.50;;;;;20.36;61.04;100242.09;4972895;28;49145;-88
2021/06/11 00:07:25;;;;;;;;;5.50;5.50;;;;;20.35;61.32;100248.47;4967057;28;50908;-90
2021/06/11 00:09:50;;;;;;;;;4.25;4.00;;;;;20.16;61.76;100231.47;4991418;28;45350;-90
2021/06/11 00:12:16;;;;;;;;;6.75;4.00;;;;;20.17;61.22;100241.28;4965333;28;45444;-86
2021/06/11 00:14:42;;;;;;;;;5.75;4.00;;;;;20.13;61.77;100238.78;4967958;28;45697;-90
2021/06/11 00:17:09;;;;;;;;;5.50;4.00;;;;;20.06;61.46;100234.63;4971451;28;45489;-90
2021/06/11 00:19:34;;;;;;;;;2.75;2.75;;;;;20.08;61.07;100243.50;4971667;28;45429;-88
2021/06/11 00:22:00;;;;;;;;;6.75;4.00;;;;;20.00;61.62;100229.53;4970566;28;45887;-90
2021/06/11 00:24:26;;;;;;;;;3.00;3.00;;;;;20.01;61.97;100242.09;4974141;28;45314;-90
2021/06/11 00:26:51;;;;;;;;;4.75;4.75;;;;;20.00;61.56;100245.75;4987876;28;45967;-88
2021/06/11 00:29:17;;;;;;;;;4.50;4.00;;;;;19.89;61.90;100227.41;4966336;28;56459;-91
2021/06/11 00:31:42;;;;;;;;;4.00;3.00;;;;;19.78;61.96;100216.22;4971530;28;45640;-89
2021/06/11 00:34:07;;;;;;;;;3.00;3.00;;;;;19.92;61.47;100238.03;4963319;28;51454;-90
2021/06/11 00:36:33;;;;;;;;;6.50;4.00;;;;;19.92;62.10;100248.81;4974894;28;45771;-88
2021/06/11 00:38:58;;;;;;;;;5.00;5.00;;;;;19.79;61.87;100234.16;4974413;28;45926;-90
2021/06/11 00:41:23;;;;;;;;;7.25;5.25;;;;;19.81;61.71;100245.75;4968961;28;45907;-90
2021/06/11 00:43:49;;;;;;;;;6.50;5.25;;;;;19.64;62.34;100217.78;4970280;28;55026;-86
2021/06/11 00:46:14;;;;;;;;;7.75;6.00;;;;;19.75;62.51;100241.53;4971632;28;51762;-90
2021/06/11 00:48:39;;;;;;;;;5.00;4.00;;;;;19.76;61.82;100243.28;4971594;28;45428;-89
2021/06/11 00:51:05;;;;;;;;;5.25;5.25;;;;;19.67;62.33;100235.66;4970512;28;45525;-89
2021/06/11 00:53:30;;;;;;;;;5.25;3.50;;;;;19.67;62.36;100233.84;4972533;28;45991;-88
2021/06/11 00:55:56;;;;;;;;;5.50;5.25;;;;;19.70;62.75;100240.91;4956895;28;45690;-90
2021/06/11 00:58:21;;;;;;;;;5.00;5.00;;;;;19.57;62.66;100220.88;4968641;28;45331;-87
2021/06/11 01:00:48;;;;;;;;;5.00;5.00;;;;;19.64;62.31;100243.88;4970902;28;45583;-88
2021/06/11 01:03:15;;;;;;;;;4.50;4.50;;;;;19.62;61.96;100235.03;4967504;28;48181;-89
2021/06/11 01:05:41;;;;;;;;;5.00;5.00;;;;;19.61;62.66;100239.53;4969736;28;46063;-87
2021/06/11 01:08:08;;;;;;;;;4.75;4.00;;;;;19.57;62.34;100243.34;4971456;28;45359;-89
2021/06/11 01:10:34;;;;;;;;;5.75;5.00;;;;;19.56;62.50;100241.59;4956308;28;45503;-88
2021/06/11 01:13:00;;;;;;;;;5.50;4.25;;;;;19.55;62.44;100238.94;4955289;28;48147;-85
2021/06/11 01:15:25;;;;;;;;;5.75;4.25;;;;;19.54;62.41;100245.28;4952744;28;45402;-85
2021/06/11 01:17:53;;;;;;;;;8.50;4.75;;;;;19.49;62.78;100235.63;4962392;28;50892;-89
2021/06/11 01:20:19;;;;;;;;;3.00;3.00;;;;;19.50;62.53;100233.78;4969202;28;45346;-89
2021/06/11 01:23:26;;;;;;;;;4.50;4.50;;;;;19.40;62.23;100219.00;4964961;28;46338;-90
2021/06/11 01:26:29;;;;;;;;;4.00;4.00;;;;;19.46;62.35;100229.50;4962671;28;45853;-86
2021/06/11 01:28:59;;;;;;;;;3.00;3.00;;;;;19.44;62.67;100226.00;4968848;28;45487;-89
2021/06/11 01:31:25;;;;;;;;;3.25;1.50;;;;;19.46;62.30;100232.19;4969569;28;45548;-88
2021/06/11 01:33:52;;;;;;;;;5.50;3.00;;;;;19.42;62.41;100228.75;4968350;28;48480;-89
2021/06/11 01:36:21;;;;;;;;;5.00;5.00;;;;;19.32;62.46;100222.94;4953365;28;45440;-89
2021/06/11 01:38:48;;;;;;;;;3.50;3.25;;;;;19.31;62.29;100226.59;4969391;28;45439;-89
2021/06/11 01:41:16;;;;;;;;;5.50;3.00;;;;;19.25;62.82;100226.00;4972789;28;45425;-89
2021/06/11 01:43:42;;;;;;;;;4.25;3.00;;;;;19.24;62.89;100225.16;4966459;28;48505;-85
2021/06/11 01:46:12;;;;;;;;;2.50;1.75;;;;;19.23;62.31;100222.50;4958972;28;45854;-89
2021/06/11 01:48:39;;;;;;;;;2.50;2.00;;;;;19.23;62.33;100226.09;4970353;28;47485;-86
2021/06/11 01:51:07;;;;;;;;;2.25;2.00;;;;;19.19;62.87;100211.88;4968810;28;45499;-87
2021/06/11 01:53:35;;;;;;;;;5.75;3.00;;;;;19.09;62.49;100194.41;4965114;28;48194;-89
2021/06/11 01:56:02;;;;;;;;;4.00;2.00;;;;;19.12;62.42;100206.84;4968396;28;45704;-88
2021/06/11 01:58:27;;;;;;;;;3.50;3.00;;;;;19.15;62.56;100212.09;4969217;28;45572;-88
2021/06/11 02:00:54;;;;;;;;;2.00;2.00;;;;;19.02;62.81;100190.22;4952755;28;45354;-87
2021/06/11 02:03:22;;;;;;;;;2.00;2.00;;;;;19.13;62.70;100211.31;4965607;28;46682;-88
2021/06/11 02:05:48;;;;;;;;;2.25;2.25;;;;;18.98;62.64;100194.03;4965284;28;46087;-87
2021/06/11 02:08:14;;;;;;;;;2.00;2.00;;;;;19.11;63.19;100210.50;4973173;28;45520;-89
2021/06/11 02:10:39;;;;;;;;;1.00;1.00;;;;;19.03;62.97;100194.66;4962085;28;45568;-89
2021/06/11 02:13:06;;;;;;;;;2.75;2.25;;;;;19.04;62.89;100202.72;4965350;28;45722;-87
2021/06/11 02:15:32;;;;;;;;;5.00;2.50;;;;;19.05;62.55;100209.81;4966160;28;53867;-87
2021/06/11 02:17:58;;;;;;;;;3.75;1.75;;;;;18.94;63.28;100203.19;4972861;28;45492;-88
2021/06/11 02:20:24;;;;;;;;;4.00;2.25;;;;;18.96;63.46;100194.09;4967143;28;55098;-88
2021/06/11 02:22:50;;;;;;;;;3.00;2.00;;;;;18.95;62.67;100203.13;4968843;28;45603;-88
2021/06/11 02:25:17;;;;;;;;;2.00;2.00;;;;;18.93;63.24;100201.41;4969028;28;45534;-89
2021/06/11 02:27:44;;;;;;;;;2.00;2.00;;;;;18.98;62.94;100213.75;4960231;28;45424;-89
2021/06/11 02:30:15;;;;;;;;;1.00;1.00;;;;;18.97;63.37;100203.94;4976605;28;45572;-84
2021/06/11 02:32:41;;;;;;;;;4.00;3.00;;;;;18.91;63.60;100206.88;4973700;28;47127;-87
2021/06/11 02:35:08;;;;;;;;;1.25;1.25;;;;;18.89;63.20;100206.94;4974772;28;50064;-88
2021/06/11 02:37:35;;;;;;;;;2.00;2.00;;;;;18.83;63.76;100209.06;4973237;28;45457;-88
2021/06/11 02:40:01;;;;;;;;;2.00;2.00;;;;;18.79;63.87;100205.63;4975186;28;45712;-88
2021/06/11 02:42:27;;;;;;;;;1.75;1.75;;;;;18.79;63.39;100196.69;4963717;28;48303;-85
2021/06/11 02:44:54;;;;;;;;;2.00;2.00;;;;;18.81;63.28;100200.19;4974116;28;45438;-88
2021/06/11 02:47:45;;;;;;;;;2.00;2.00;;;;;18.80;63.38;100193.91;4970834;28;45522;-87
2021/06/11 02:50:14;;;;;;;;;2.00;2.00;;;;;18.69;63.65;100186.31;4962863;28;45528;-89
2021/06/11 02:52:45;;;;;;;;;3.75;2.00;;;;;18.70;63.90;100185.38;4973085;28;46504;-87
2021/06/11 02:55:11;;;;;;;;;3.00;2.00;;;;;18.76;63.96;100194.13;4993050;28;45553;-86
2021/06/11 02:57:44;;;;;;;;;5.00;2.25;;;;;18.73;63.80;100190.59;4972663;28;45403;-82
2021/06/11 03:00:10;;;;;;;;;2.25;2.25;;;;;18.67;63.99;100185.53;4975013;28;45306;-85
2021/06/11 03:02:52;;;;;;;;;4.00;2.00;;;;;18.70;63.92;100187.19;4973509;28;45909;-89
2021/06/11 03:05:19;;;;;;;;;3.50;2.75;;;;;18.72;63.59;100194.28;4969619;28;45757;-89
2021/06/11 03:07:46;;;;;;;;;2.25;1.25;;;;;18.67;63.91;100179.25;4971189;28;45402;-89
2021/06/11 03:10:12;;;;;;;;;4.25;2.50;;;;;18.73;64.06;100195.13;4964438;28;45375;-88
2021/06/11 03:12:39;;;;;;;;;1.50;1.50;;;;;18.71;63.94;100187.13;4971386;28;47321;-91
2021/06/11 03:15:08;;;;;;;;;3.00;3.00;;;;;18.64;64.27;100180.25;4967640;28;45499;-91
2021/06/11 03:17:42;;;;;;;;;3.00;2.00;;;;;18.64;64.50;100182.97;4972800;28;45515;-89
2021/06/11 03:20:13;;;;;;;;;3.00;2.00;;;;;18.63;64.25;100181.19;4970961;28;45461;-88
2021/06/11 03:22:50;;;;;;;;;3.25;2.00;;;;;18.64;64.26;100184.78;4970290;28;46436;-90
2021/06/11 03:25:20;;;;;;;;;1.75;1.75;;;;;18.64;64.17;100188.34;4993350;28;45955;-90
2021/06/11 03:27:55;;;;;;;;;2.00;2.00;;;;;18.52;64.75;100167.38;4991829;28;45390;-91
2021/06/11 03:30:24;;;;;;;;;4.00;3.00;;;;;18.54;64.59;100177.13;4968614;28;46641;-90
2021/06/11 03:32:57;;;;;;;;;2.25;2.25;;;;;18.48;64.95;100176.53;4969973;28;46315;-89
2021/06/11 03:35:26;;;;;;;;;2.50;1.25;;;;;18.52;64.38;100178.16;4970250;28;45970;-89
2021/06/11 03:37:55;;;;;;;;;3.00;2.00;;;;;18.38;64.19;100162.59;4965392;28;45419;-90
2021/06/11 03:40:24;;;;;;;;;1.50;1.50;;;;;18.54;64.29;100189.72;4975142;28;45600;-89
2021/06/11 03:42:52;;;;;;;;;4.00;2.25;;;;;18.49;64.74;100189.06;4970271;28;47533;-90
2021/06/11 03:45:18;;;;;;;;;3.00;3.00;;;;;18.49;64.62;100183.69;4973225;28;45724;-91
2021/06/11 03:47:44;;;;;;;;;3.00;2.75;;;;;18.49;64.65;100189.91;4973240;28;45434;-87
2021/06/11 03:50:10;;;;;;;;;3.00;3.00;;;;;18.42;64.53;100181.25;4963903;28;45496;-90
2021/06/11 03:52:39;;;;;;;;;1.50;1.50;;;;;18.47;64.31;100188.25;4969405;28;45498;-89
2021/06/11 03:55:19;;;;;;;;;3.00;3.00;;;;;18.47;64.78;100190.94;4973596;28;45539;-89
2021/06/11 03:57:53;;;;;;;;;4.00;3.00;;;;;18.49;64.20;100180.97;4958682;28;45601;-91
2021/06/11 04:00:21;;;;;;;;;2.00;2.00;;;;;18.36;64.56;100165.38;4973695;28;45340;-90
2021/06/11 04:02:47;;;;;;;;;1.75;1.75;;;;;18.41;64.26;100184.88;4952679;28;48497;-90
2021/06/11 04:05:13;;;;;;;;;2.00;1.75;;;;;18.46;64.68;100190.09;4975103;28;45802;-89
2021/06/11 04:08:06;;;;;;;;;1.25;1.25;;;;;18.49;64.75;100191.75;4975459;28;45451;-91
2021/06/11 04:10:39;;;;;;;;;2.75;2.00;;;;;18.43;64.38;100180.28;4962638;28;45418;-88
2021/06/11 04:13:18;;;;;;;;;4.00;2.00;;;;;18.44;64.53;100189.28;4985852;28;46408;-86
2021/06/11 04:15:48;;;;;;;;;2.00;2.00;;;;;18.50;64.25;100193.50;4979175;28;45880;-84
2021/06/11 04:18:18;;;;;;;;;3.50;2.25;;;;;18.48;64.72;100198.94;4983878;28;45359;-89
2021/06/11 04:20:48;;;;;;;;;2.50;2.00;;;;;18.48;64.79;100200.78;4981149;28;45603;-91
2021/06/11 04:23:15;;;;;;;;;2.50;1.00;;;;;18.45;64.46;100198.22;4979917;28;45462;-87
2021/06/11 04:25:41;;;;;;;;;2.00;2.00;;;;;18.44;64.90;100189.28;4974705;28;53733;-87
2021/06/11 04:28:10;;;;;;;;;4.50;3.00;;;;;18.34;64.75;100164.56;4998622;28;48838;-89
2021/06/11 04:30:36;;;;;;;;;3.25;2.50;;;;;18.40;64.76;100180.47;4953027;28;49732;-87
2021/06/11 04:33:01;;;;;;;;;3.00;3.00;;;;;18.48;64.82;100193.56;4969306;28;61571;-91
2021/06/11 04:35:35;;;;;;;;;4.25;2.75;;;;;18.43;64.78;100191.06;4969161;28;50509;-90
2021/06/11 04:38:00;;;;;;;;;1.50;1.50;;;;;18.50;64.44;100197.06;4974081;28;45668;-87
2021/06/11 04:40:26;;;;;;;;;3.00;3.00;;;;;18.55;64.76;100202.25;4972931;28;45473;-85
2021/06/11 04:42:51;;;;;;;;;3.50;2.00;;;;;18.57;64.28;100200.34;4973431;28;45783;-89
2021/06/11 04:45:17;;;;;;;;;3.50;2.00;;;;;18.48;64.66;100188.16;4968371;28;45648;-88
2021/06/11 04:47:43;;;;;;;;;2.25;1.50;;;;;18.61;64.52;100207.38;4972565;28;48563;-88
2021/06/11 04:50:08;;;;;;;;;4.75;2.00;;;;;18.62;65.00;100205.53;4970695;28;45733;-90
2021/06/11 04:52:34;;;;;;;;;3.25;2.25;;;;;18.65;64.78;100205.41;4967745;28;46359;-90
2021/06/11 04:54:59;;;;;;;;;4.50;3.00;;;;;18.61;64.88;100201.97;4985373;28;59413;-89
2021/06/11 04:57:24;;;;;;;;;3.00;3.00;;;;;18.58;64.71;100185.94;4974075;28;45346;-89
2021/06/11 04:59:50;;;;;;;;;2.75;2.75;;;;;18.70;64.45;100209.63;4971538;28;55816;-89
2021/06/11 05:02:15;;;;;;;;;3.00;3.00;;;;;18.73;64.74;100214.88;4974942;28;45458;-88
2021/06/11 05:04:40;;;;;;;;;2.00;2.00;;;;;18.70;64.71;100196.16;4973384;28;45549;-91
2021/06/11 05:07:06;;;;;;;;;3.50;2.25;;;;;18.81;64.30;100210.97;4974405;28;45353;-89
2021/06/11 05:09:32;;;;;;;;;2.75;2.00;;;;;18.77;64.52;100204.84;4970603;28;45517;-91
2021/06/11 05:11:57;;;;;;;;;2.75;1.75;;;;;18.84;64.39;100209.00;4969387;28;45568;-90
2021/06/11 05:14:23;;;;;;;;;2.00;2.00;;;;;18.85;64.71;100209.84;4972039;28;47869;-90
2021/06/11 05:16:48;;;;;;;;;3.00;2.00;;;;;18.94;64.18;100216.69;4961477;28;45520;-88
2021/06/11 05:19:14;;;;;;;;;5.25;4.00;;;;;18.96;64.68;100221.03;4969568;28;49564;-87
2021/06/11 05:21:39;;;;;;;;;3.25;2.00;;;;;19.03;64.68;100218.94;4968087;28;46113;-88
2021/06/11 05:24:06;;;;;;;;;2.75;2.75;;;;;19.06;64.39;100218.81;4984876;28;45681;-88
2021/06/11 05:26:31;;;;;;;;;2.00;2.00;;;;;19.09;64.06;100226.75;4967846;28;47293;-88
2021/06/11 05:28:57;;;;;;;;;3.00;2.00;;;;;19.12;64.90;100231.97;4972379;28;45738;-87
2021/06/11 05:31:22;;;;;;;;;1.50;1.50;;;;;19.10;64.44;100227.63;4970158;28;45608;-88
2021/06/11 05:33:48;;;;;;;;;2.50;2.00;;;;;19.14;64.23;100235.50;4972692;28;45396;-86
2021/06/11 05:36:13;;;;;;;;;2.25;2.25;;;;;19.18;64.38;100228.13;4972393;28;45479;-86
2021/06/11 05:38:39;;;;;;;;;1.50;1.50;;;;;19.20;64.59;100228.94;4952313;28;45545;-88
2021/06/11 05:41:04;;;;;;;;;3.00;2.50;;;;;19.27;64.52;100235.78;4971555;28;53093;-87
2021/06/11 05:43:30;;;;;;;;;4.75;2.00;;;;;19.27;64.39;100230.38;4973490;28;45346;-83
2021/06/11 05:45:57;;;;;;;;;3.00;3.00;;;;;19.38;64.78;100245.16;4962704;28;45488;-85
2021/06/11 05:48:22;;;;;;;;;4.00;3.75;;;;;19.34;64.38;100231.84;4969327;28;45311;-86
2021/06/11 05:50:48;;;;;;;;;2.75;2.00;;;;;19.41;64.87;100239.63;4970728;28;45577;-88
2021/06/11 05:53:13;;;;;;;;;3.00;3.00;;;;;19.46;64.31;100243.84;4953680;28;45648;-87
2021/06/11 05:55:39;;;;;;;;;5.00;3.00;;;;;19.48;64.53;100241.06;4985359;28;45450;-87
2021/06/11 05:58:04;;;;;;;;;1.25;1.25;;;;;19.54;64.56;100248.88;4972055;28;45569;-88
2021/06/11 06:00:29;;;;;;;;;2.00;2.00;;;;;19.54;64.83;100248.88;4972150;28;45583;-88
2021/06/11 06:02:55;;;;;;;;;2.00;1.50;;;;;19.55;64.77;100250.63;4972247;28;45664;-86
2021/06/11 06:05:20;;;;;;;;;4.00;1.00;;;;;19.58;64.53;100255.00;4971206;28;45534;-88
2021/06/11 06:07:46;;;;;;;;;2.00;2.00;;;;;19.53;64.63;100255.22;4973406;28;45383;-87
2021/06/11 06:10:12;;;;;;;;;1.00;1.00;;;;;19.52;64.33;100251.63;4970021;28;54056;-86
2021/06/11 06:12:38;;;;;;;;;1.00;1.00;;;;;19.52;64.81;100253.47;4967865;28;45700;-86
2021/06/11 06:15:05;;;;;;;;;2.25;2.25;;;;;19.61;64.60;100260.25;4967821;28;45363;-88
2021/06/11 06:17:34;;;;;;;;;2.25;2.25;;;;;19.62;64.47;100262.00;4972753;28;45928;-88
2021/06/11 06:20:03;;;;;;;;;1.25;1.00;;;;;19.68;64.87;100261.69;4988113;28;48516;-88
2021/06/11 06:22:28;;;;;;;;;2.00;2.00;;;;;19.66;64.50;100260.88;4971257;28;46249;-88
2021/06/11 06:24:53;;;;;;;;;2.00;2.00;;;;;19.70;64.97;100267.00;4948573;28;64983;-88
2021/06/11 06:27:19;;;;;;;;;3.00;3.00;;;;;19.76;64.97;100266.72;4964057;28;45428;-88
2021/06/11 06:29:44;;;;;;;;;2.00;2.00;;;;;19.73;65.27;100254.25;4959673;28;46265;-84
2021/06/11 06:32:09;;;;;;;;;2.00;2.00;;;;;19.85;64.92;100258.16;4967425;28;56910;-88
2021/06/11 06:34:35;;;;;;;;;3.75;2.00;;;;;19.86;65.26;100257.25;4969891;28;47751;-88
2021/06/11 06:37:00;;;;;;;;;1.00;1.00;;;;;19.90;63.86;100260.66;4964631;28;46713;-55
2021/06/11 06:39:27;;;;;;;;;1.75;1.75;;;;;20.18;62.54;100253.84;4950602;28;46005;-60
2021/06/11 06:41:52;;;;;;;;;2.75;2.00;;;;;20.42;62.12;100252.56;4968131;28;45589;-58
2021/06/11 06:44:18;;;;;;;;;2.00;2.00;;;;;20.63;61.78;100259.66;4966058;28;45504;-74
2021/06/11 06:46:43;;;;;;;;;3.00;1.50;;;;;20.79;61.48;100266.00;4969011;28;54210;-62
2021/06/11 06:49:09;;;;;;;;;1.75;1.75;;;;;20.92;61.11;100255.38;4965942;28;46134;-65
2021/06/11 06:51:36;;;;;;;;;1.75;1.00;;;;;21.04;59.95;100264.66;4966048;28;45539;-59
2021/06/11 06:54:02;;;;;;;;;2.00;2.00;;;;;21.12;59.69;100259.69;4959899;28;45479;-58
2021/06/11 06:56:30;;;;;;;;;2.00;2.00;;;;;21.18;59.65;100256.63;4964298;28;45468;-59
2021/06/11 06:58:56;;;;;;;;;1.50;1.00;;;;;21.26;59.43;100255.34;4961769;28;46572;-59
2021/06/11 07:01:25;;;;;;;;;1.25;0.00;;;;;21.26;58.17;100253.50;4967513;28;45589;-60
2021/06/11 07:03:56;;;;;;;;;0.00;0.00;;;;;21.35;57.85;100268.38;4966783;28;45423;-60
2021/06/11 07:06:26;;;;;;;;;1.00;1.00;;;;;21.36;57.68;100270.97;4970238;28;45453;-59
2021/06/11 07:08:51;;;;;;;;;1.25;1.00;;;;;21.39;58.02;100260.94;4968400;28;47575;-60
2021/06/11 07:11:17;;;;;;;;;1.00;1.00;;;;;21.38;57.18;100257.34;4971789;28;45538;-59
2021/06/11 07:13:42;;;;;;;;;1.75;1.00;;;;;21.45;57.35;100260.59;4974319;28;45536;-58
2021/06/11 07:16:09;;;;;;;;;1.00;1.00;;;;;21.47;57.25;100262.25;4974036;28;45476;-59
2021/06/11 07:18:34;;;;;;;;;1.25;1.25;;;;;21.50;57.37;100264.78;4975571;28;46042;-59
2021/06/11 07:21:00;;;;;;;;;1.00;1.00;;;;;21.55;57.42;100267.22;4973241;28;45568;-60
2021/06/11 07:23:25;;;;;;;;;1.00;1.00;;;;;21.63;57.46;100272.22;4969157;28;45335;-59
2021/06/11 07:25:50;;;;;;;;;4.00;2.00;;;;;21.69;57.56;100269.19;4968301;28;45461;-59
2021/06/11 07:28:16;;;;;;;;;2.00;2.00;;;;;21.78;57.47;100276.78;4971248;28;45473;-60
2021/06/11 07:30:41;;;;;;;;;5.00;3.50;;;;;21.92;57.72;100269.66;4974339;28;45473;-59
2021/06/11 07:33:07;;;;;;;;;8.00;5.25;;;;;22.05;57.86;100272.53;4973120;28;45845;-59
2021/06/11 07:35:32;;;;;;;;;7.50;4.25;;;;;22.13;57.50;100268.38;4972760;28;45631;-60
2021/06/11 07:37:58;;;;;;;;;5.00;3.25;;;;;22.26;57.50;100267.66;4962281;28;46811;-60
2021/06/11 07:40:23;;;;;;;;;4.50;3.00;;;;;22.37;57.44;100272.44;4953136;28;45591;-52
2021/06/11 07:42:49;;;;;;;;;3.75;2.00;;;;;22.45;56.39;100264.75;4969824;28;45767;-58
2021/06/11 07:45:14;;;;;;;;;2.25;2.25;;;;;22.58;56.21;100270.28;4968781;28;45573;-59
2021/06/11 07:47:40;;;;;;;;;2.00;1.75;;;;;22.67;56.48;100275.13;4966367;28;46094;-56
2021/06/11 07:50:07;;;;;;;;;2.00;2.00;;;;;22.74;56.06;100281.94;4970720;28;45444;-59
2021/06/11 07:52:35;;;;;;;;;2.00;2.00;;;;;22.81;55.55;100279.69;4969908;28;45584;-58
2021/06/11 07:55:01;;;;;;;;;3.00;2.00;;;;;22.88;55.66;100269.34;4972709;28;45750;-57
2021/06/11 07:57:27;;;;;;;;;2.00;2.00;;;;;22.91;55.25;100266.44;4966519;28;46144;-59
2021/06/11 07:59:52;;;;;;;;;3.50;1.50;;;;;22.99;54.94;100271.38;4967382;28;58929;-58
2021/06/11 08:02:17;;;;;;;;;1.75;1.75;;;;;23.07;54.81;100279.91;4973671;28;53786;-58
2021/06/11 08:04:43;;;;;;;;;1.50;1.50;;;;;23.12;55.11;100282.31;4972898;28;55299;-61
2021/06/11 08:07:08;;;;;;;;;4.50;1.25;;;;;23.15;53.94;100283.00;4971360;28;46252;-58
2021/06/11 08:09:34;;;;;;;;;1.75;1.75;;;;;23.19;54.66;100286.41;4973741;28;45522;-57
2021/06/11 08:11:59;;;;;;;;;2.00;2.00;;;;;23.23;54.47;100287.97;4970022;28;45646;-59
2021/06/11 08:14:25;;;;;;;;;1.00;1.00;;;;;23.28;54.09;100293.13;4973137;28;45512;-58
2021/06/11 08:16:50;;;;;;;;;2.00;1.00;;;;;23.32;53.40;100291.97;4968612;28;45884;-58
2021/06/11 08:19:15;;;;;;;;;1.00;1.00;;;;;23.36;53.53;100294.38;4973317;28;45551;-59
2021/06/11 08:21:41;;;;;;;;;0.25;0.25;;;;;23.36;53.63;100291.66;4975182;28;45476;-60
2021/06/11 08:24:06;;;;;;;;;2.25;2.25;;;;;23.43;53.09;100297.56;4968032;28;45616;-58
2021/06/11 08:26:32;;;;;;;;;1.00;1.00;;;;;23.50;53.51;100296.19;4967245;28;46080;-54
2021/06/11 08:28:57;;;;;;;;;2.00;2.00;;;;;23.52;54.18;100306.94;4973344;28;45670;-58
2021/06/11 08:31:23;;;;;;;;;2.50;2.50;;;;;23.57;53.09;100302.09;4972875;28;45610;-58
2021/06/11 08:33:48;;;;;;;;;2.25;2.00;;;;;23.66;53.06;100308.75;4982725;28;54559;-58
2021/06/11 08:36:14;;;;;;;;;2.00;2.00;;;;;23.69;52.63;100300.41;4970043;28;46097;-60
2021/06/11 08:38:39;;;;;;;;;3.50;2.00;;;;;23.72;52.34;100297.50;4965271;28;45613;-59
2021/06/11 08:41:10;;;;;;;;;2.25;2.00;;;;;23.72;52.31;100305.66;4960950;28;45231;-60
2021/06/11 08:43:35;;;;;;;;;4.00;2.00;;;;;23.72;52.22;100312.91;4972580;28;45423;-60
2021/06/11 08:46:01;;;;;;;;;4.00;2.00;;;;;23.78;51.81;100313.38;4966839;28;46095;-58
2021/06/11 08:48:27;;;;;;;;;2.00;2.00;;;;;23.75;51.69;100304.56;4968662;28;63955;-58
2021/06/11 08:50:52;;;;;;;;;1.75;1.25;;;;;23.83;51.54;100310.34;4973142;28;45536;-58
2021/06/11 08:53:18;;;;;;;;;2.00;2.00;;;;;23.89;51.47;100315.41;4968030;28;45536;-58
2021/06/11 08:55:46;;;;;;;;;3.00;2.00;;;;;24.01;50.75;100313.72;4969225;28;46277;-56
2021/06/11 08:58:11;;;;;;;;;2.25;2.00;;;;;24.18;51.23;100304.44;4967816;28;45595;-58
2021/06/11 09:00:36;;;;;;;;;2.00;2.00;;;;;24.35;50.11;100306.03;4973364;28;45722;-57
2021/06/11 09:03:20;;;;;;;;;2.50;1.00;;;;;24.50;50.04;100301.38;4968630;28;45357;-58
2021/06/11 09:06:06;;;;;;;;;2.00;2.00;;;;;24.60;50.48;100302.47;4969888;28;46396;-59
2021/06/11 09:08:32;;;;;;;;;3.25;2.00;;;;;24.81;50.97;100306.56;4966134;28;45528;-58
2021/06/11 09:11:11;;;;;;;;;2.25;2.25;;;;;24.90;49.62;100287.72;4972406;28;45386;-54
2021/06/11 09:13:40;;;;;;;;;3.00;2.00;;;;;25.11;50.69;100294.47;4958271;28;45523;-58
2021/06/11 09:16:13;;;;;;;;;2.00;2.00;;;;;25.26;49.16;100292.47;4971487;28;46986;-60
2021/06/11 09:18:53;;;;;;;;;1.75;1.00;;;;;25.38;48.85;100292.44;4969813;28;45429;-59
2021/06/11 09:21:24;;;;;;;;;3.50;1.50;;;;;25.43;48.51;100291.28;4972884;28;45909;-61
2021/06/11 09:26:56;;;;;;;;;2.00;2.00;;;;;25.51;48.90;100287.00;4967456;28;45704;-59
2021/06/11 09:29:26;;;;;;;;;2.75;2.75;;;;;25.64;49.17;100280.63;4964257;28;46079;-53
2021/06/11 09:31:53;;;;;;;;;2.25;2.25;;;;;25.76;48.92;100281.59;4948960;28;46116;-58
2021/06/11 09:34:20;;;;;;;;;4.50;3.25;;;;;25.87;48.24;100283.50;4968612;28;45426;-60
2021/06/11 09:37:09;;;;;;;;;5.00;3.25;;;;;25.96;48.34;100293.69;4971340;28;46176;-61
2021/06/11 09:39:45;;;;;;;;;2.75;2.75;;;;;26.04;48.71;100293.13;4966513;28;45535;-58
2021/06/11 09:42:13;;;;;;;;;4.75;3.00;;;;;26.08;48.26;100294.66;4970820;28;45497;-58
2021/06/11 09:44:39;;;;;;;;;2.75;2.75;;;;;26.10;48.16;100287.22;4970454;28;45656;-58
2021/06/11 09:47:04;;;;;;;;;3.00;2.00;;;;;26.19;48.45;100294.69;4968190;28;46117;-58
2021/06/11 09:49:45;;;;;;;;;5.25;3.75;;;;;26.26;47.60;100284.19;4967834;28;50986;-58
2021/06/11 09:52:11;;;;;;;;;3.00;2.00;;;;;26.29;48.65;100287.59;4963028;28;45778;-60
2021/06/11 09:54:37;;;;;;;;;4.00;4.00;;;;;26.35;47.22;100282.63;4969216;28;45670;-61
2021/06/11 09:57:19;;;;;;;;;4.00;3.00;;;;;26.41;47.38;100284.84;4969613;28;45817;-57
2021/06/11 09:59:44;;;;;;;;;3.00;3.00;;;;;26.45;46.64;100283.66;4968440;28;45746;-61
2021/06/11 10:02:17;;;;;;;;;8.25;3.25;;;;;26.50;46.83;100278.72;4966880;28;45441;-58
2021/06/11 10:04:44;;;;;;;;;5.00;3.00;;;;;26.56;47.05;100282.81;4969553;28;45504;-57
2021/06/11 10:07:10;;;;;;;;;4.25;4.25;;;;;26.62;46.73;100287.78;4964704;28;46277;-59
2021/06/11 10:09:36;;;;;;;;;5.00;3.75;;;;;26.68;47.64;100289.16;4974829;28;45841;-60
2021/06/11 10:12:02;;;;;;;;;4.25;4.00;;;;;26.68;46.88;100270.91;4954399;28;45539;-59
2021/06/11 10:14:29;;;;;;;;;4.25;3.25;;;;;26.76;46.55;100282.13;4964429;28;46252;-59
2021/06/11 10:16:54;;;;;;;;;3.00;3.00;;;;;26.81;46.16;100269.97;4972632;28;46204;-60
2021/06/11 10:19:20;;;;;;;;;6.00;3.00;;;;;26.84;46.98;100275.19;4968815;28;45811;-59
2021/06/11 10:21:45;;;;;;;;;3.00;3.00;;;;;26.87;45.91;100270.38;4979179;28;45612;-59
2021/06/11 10:24:11;;;;;;;;;3.00;3.00;;;;;26.92;45.96;100289.09;4974971;28;45325;-59
2021/06/11 10:26:37;;;;;;;;;5.00;3.00;;;;;26.96;45.88;100274.22;4972464;28;45863;-59
2021/06/11 10:29:03;;;;;;;;;3.00;3.00;;;;;27.03;45.64;100272.72;4972312;28;45698;-59
2021/06/11 10:31:35;;;;;;;;;4.00;4.00;;;;;27.08;45.65;100271.50;4970320;28;47520;-60
2021/06/11 10:34:02;;;;;;;;;4.00;3.25;;;;;27.15;45.72;100267.28;4962764;28;45597;-60
2021/06/11 10:36:29;;;;;;;;;3.00;3.00;;;;;27.22;45.08;100274.84;4976792;28;46124;-59
2021/06/11 10:38:57;;;;;;;;;3.50;3.50;;;;;27.27;45.22;100269.00;4972658;28;45552;-60
2021/06/11 10:41:23;;;;;;;;;5.25;5.25;;;;;27.33;45.17;100265.75;4968746;28;46600;-58
2021/06/11 10:43:50;;;;;;;;;4.00;3.25;;;;;27.43;44.88;100267.72;4964781;28;45721;-59
2021/06/11 10:46:30;;;;;;;;;5.50;4.25;;;;;27.46;44.84;100264.78;4963778;28;45913;-59
2021/06/11 10:48:55;;;;;;;;;3.75;2.75;;;;;27.58;44.56;100269.25;4974968;28;46033;-56
2021/06/11 10:51:46;;;;;;;;;3.50;3.50;;;;;27.51;44.76;100257.09;4977423;28;45488;-57
2021/06/11 10:54:15;;;;;;;;;4.00;4.00;;;;;27.45;44.65;100258.47;4992210;28;45768;-57
2021/06/11 10:57:09;;;;;;;;;3.00;3.00;;;;;27.51;44.51;100259.81;4974962;28;46571;-59
2021/06/11 10:59:40;;;;;;;;;3.50;3.50;;;;;27.73;43.99;100245.22;4971489;28;45626;-59
2021/06/11 11:02:06;;;;;;;;;4.50;4.25;;;;;27.87;44.16;100246.78;4972878;28;45500;-58
2021/06/11 11:04:35;;;;;;;;;3.00;3.00;;;;;27.96;45.59;100246.00;4973031;28;45378;-56
2021/06/11 11:07:32;;;;;;;;;6.75;3.75;;;;;28.19;44.12;100248.69;4972637;28;47250;-60
2021/06/11 11:10:08;;;;;;;;;4.00;4.00;;;;;28.16;43.38;100224.31;4974632;28;45886;-59
2021/06/11 11:13:02;;;;;;;;;4.00;4.00;;;;;28.44;44.13;100241.09;4981159;28;45421;-58
2021/06/11 11:15:38;;;;;;;;;5.75;3.25;;;;;28.80;42.65;100249.81;4977961;28;46596;-62
2021/06/11 11:18:09;;;;;;;;;3.75;3.50;;;;;29.20;43.23;100240.78;4972504;28;46297;-59
2021/06/11 11:20:36;;;;;;;;;5.75;4.00;;;;;32.02;38.88;100242.41;4973698;28;45449;-57
2021/06/11 11:23:04;;;;;;;;;4.00;3.75;;;;;36.37;34.16;100237.50;4972297;28;45573;-59
2021/06/11 11:25:29;;;;;;;;;6.00;4.00;;;;;39.87;28.89;100233.47;4972777;28;45698;-62
2021/06/11 11:27:58;;;;;;;;;7.00;4.00;;;;;42.22;25.62;100244.91;4972448;28;48474;-59
2021/06/11 11:30:26;;;;;;;;;4.00;3.25;;;;;42.54;25.10;100244.03;4974616;28;45519;-59